Time;durP1;ratioP1;P1;durP2;ratioP2;P2;SDS_P1;SDS_P2;PMS_P1;PMS_P2;Temp;Humidity;BMP_temperature;BMP_pressure;BME280_temperature;BME280_humidity;BME280_pressure;Samples;Min_cycle;Max_cycle;Signal;HPM_P1;HPM_P2
2022/09/01 00:02:14;;;;;;;16.67;14.97;;;;;;;15.27;100.00;96604.00;5031636;28;104041;-61
2022/09/01 00:04:43;;;;;;;15.20;13.80;;;;;;;15.27;100.00;96597.84;5028483;28;105414;-61
2022/09/01 00:07:11;;;;;;;16.20;14.60;;;;;;;15.31;100.00;96598.91;5028261;28;105438;-61
2022/09/01 00:09:40;;;;;;;15.80;14.40;;;;;;;15.28;100.00;96597.59;5030305;27;101899;-61
2022/09/01 00:12:09;;;;;;;17.43;15.60;;;;;;;15.22;100.00;96597.88;5030220;27;102195;-61
2022/09/01 00:14:39;;;;;;;17.57;15.97;;;;;;;15.25;100.00;96591.94;5028040;28;105908;-61
2022/09/01 00:17:10;;;;;;;17.20;15.47;;;;;;;15.25;100.00;96594.63;5029800;28;102207;-61
2022/09/01 00:19:38;;;;;;;17.77;15.97;;;;;;;15.21;100.00;96590.91;5030050;28;102464;-61
2022/09/01 00:22:06;;;;;;;17.70;16.00;;;;;;;15.22;100.00;96601.38;5027951;28;105477;-61
2022/09/01 00:24:33;;;;;;;18.47;16.77;;;;;;;15.25;100.00;96600.00;5031963;28;101948;-61
2022/09/01 00:27:02;;;;;;;18.13;16.43;;;;;;;15.21;100.00;96593.59;5028936;28;104547;-61
2022/09/01 00:29:30;;;;;;;17.43;15.83;;;;;;;15.23;100.00;96596.78;5030082;28;101731;-61
2022/09/01 00:31:57;;;;;;;17.43;15.90;;;;;;;15.28;100.00;96597.59;5028377;28;105586;-61
2022/09/01 00:34:24;;;;;;;17.87;16.00;;;;;;;15.30;100.00;96599.97;5029189;28;102824;-61
2022/09/01 00:36:51;;;;;;;20.77;18.67;;;;;;;15.33;100.00;96591.44;5027963;28;101879;-61
2022/09/01 00:39:19;;;;;;;18.87;17.07;;;;;;;15.33;100.00;96586.06;5028581;28;105044;-61
2022/09/01 00:41:46;;;;;;;17.17;15.47;;;;;;;15.29;100.00;96580.44;5029458;27;102600;-61
2022/09/01 00:44:22;;;;;;;19.53;17.63;;;;;;;15.30;100.00;96578.53;5028168;28;101845;-61
2022/09/01 00:46:51;;;;;;;18.97;17.13;;;;;;;15.27;100.00;96584.47;5031321;28;105703;-61
2022/09/01 00:49:22;;;;;;;20.27;18.27;;;;;;;15.22;100.00;96579.13;5028228;28;101835;-61
2022/09/01 00:51:55;;;;;;;20.97;18.87;;;;;;;15.18;100.00;96584.22;5029681;28;102328;-61
2022/09/01 00:54:26;;;;;;;20.40;18.40;;;;;;;15.17;100.00;96582.63;5027371;28;105640;-61
2022/09/01 00:56:55;;;;;;;19.93;17.93;;;;;;;15.14;100.00;96582.34;5027517;27;101951;-61
2022/09/01 00:59:25;;;;;;;22.23;19.97;;;;;;;15.12;100.00;96579.16;5027899;28;105800;-61
2022/09/01 01:01:52;;;;;;;21.33;19.23;;;;;;;15.06;100.00;96577.56;5027489;28;105520;-61
2022/09/01 01:04:19;;;;;;;23.50;19.17;;;;;;;14.90;100.00;96578.69;5027553;28;101928;-62
2022/09/01 01:06:57;;;;;;;22.67;20.47;;;;;;;14.81;100.00;96581.13;5027882;28;105569;-61
2022/09/01 01:09:26;;;;;;;22.90;20.60;;;;;;;14.76;100.00;96580.31;5029177;27;101775;-61
2022/09/01 01:11:58;;;;;;;24.67;21.97;;;;;;;14.81;100.00;96577.63;5027850;28;105181;-61
2022/09/01 01:14:31;;;;;;;24.80;22.37;;;;;;;14.79;100.00;96577.13;5027185;28;105958;-61
2022/09/01 01:16:59;;;;;;;22.73;20.33;;;;;;;14.80;100.00;96582.22;5029224;28;101695;-61
2022/09/01 01:25:21;;;;;;;23.90;21.50;;;;;;;14.69;100.00;96574.47;5027571;28;101805;-61
2022/09/01 01:27:49;;;;;;;25.17;22.57;;;;;;;14.74;100.00;96571.78;5027365;28;103887;-61
2022/09/01 01:30:19;;;;;;;23.40;21.10;;;;;;;14.68;100.00;96573.69;5030493;28;105620;-61
2022/09/01 01:32:48;;;;;;;24.50;21.90;;;;;;;14.68;100.00;96578.22;5061731;27;105303;-61
2022/09/01 01:35:19;;;;;;;25.10;21.70;;;;;;;14.67;100.00;96573.94;5027000;28;105692;-61
2022/09/01 01:37:48;;;;;;;23.67;21.13;;;;;;;14.65;100.00;96574.22;5027379;28;102294;-61
2022/09/01 01:40:21;;;;;;;24.10;21.77;;;;;;;14.67;100.00;96568.59;5027577;28;104797;-61
2022/09/01 01:42:50;;;;;;;23.83;21.27;;;;;;;14.64;100.00;96566.44;5026609;28;105531;-61
2022/09/01 01:45:20;;;;;;;21.83;19.67;;;;;;;14.67;100.00;96560.56;5027251;28;102148;-61
2022/09/01 01:47:51;;;;;;;21.90;19.73;;;;;;;14.59;100.00;96558.41;5027507;28;105443;-61
2022/09/01 01:50:20;;;;;;;21.13;19.03;;;;;;;14.58;100.00;96554.97;5026995;28;105544;-61
2022/09/01 01:52:47;;;;;;;20.63;18.63;;;;;;;14.57;100.00;96560.56;5030830;28;102242;-61
2022/09/01 01:55:18;;;;;;;20.07;18.17;;;;;;;14.56;100.00;96567.78;5026594;28;104238;-61
2022/09/01 01:57:51;;;;;;;20.17;18.27;;;;;;;14.54;100.00;96566.47;5027139;28;102034;-61
2022/09/01 02:00:22;;;;;;;18.00;16.40;;;;;;;14.59;100.00;96566.44;5027307;28;104734;-61
2022/09/01 02:02:52;;;;;;;19.40;17.50;;;;;;;14.55;100.00;96568.09;5028312;28;102589;-61
2022/09/01 02:05:23;;;;;;;18.60;16.83;;;;;;;14.61;100.00;96572.34;5026732;28;101897;-61
2022/09/01 02:07:55;;;;;;;18.63;16.77;;;;;;;14.56;100.00;96564.34;5027174;27;104732;-61
2022/09/01 02:10:26;;;;;;;16.70;15.10;;;;;;;14.54;100.00;96561.09;5029890;28;105596;-61
2022/09/01 02:12:56;;;;;;;17.17;15.37;;;;;;;14.55;100.00;96566.19;5030325;28;102034;-61
2022/09/01 02:15:24;;;;;;;17.57;16.00;;;;;;;14.52;100.00;96557.91;5033520;28;105102;-61
2022/09/01 02:17:51;;;;;;;16.43;14.90;;;;;;;14.38;100.00;96563.00;5030724;28;102007;-61
2022/09/01 02:20:18;;;;;;;15.63;14.13;;;;;;;14.34;100.00;96556.59;5030507;28;104780;-61
2022/09/01 02:22:46;;;;;;;14.87;13.23;;;;;;;14.34;100.00;96569.97;5029679;28;105689;-61
2022/09/01 02:25:15;;;;;;;13.63;12.43;;;;;;;14.39;100.00;96558.47;5030277;28;101971;-61
2022/09/01 02:27:43;;;;;;;13.53;12.30;;;;;;;14.35;100.00;96563.56;5030238;28;105229;-61
2022/09/01 02:30:13;;;;;;;13.80;12.40;;;;;;;14.36;100.00;96554.47;5029858;28;105674;-61
2022/09/01 02:32:41;;;;;;;13.97;12.50;;;;;;;14.31;100.00;96565.16;5030336;28;102231;-61
2022/09/01 02:35:10;;;;;;;13.40;12.10;;;;;;;14.32;100.00;96568.63;5029988;28;105534;-61
2022/09/01 02:37:41;;;;;;;13.63;12.33;;;;;;;14.36;100.00;96575.06;5033022;28;105715;-61
2022/09/01 02:40:10;;;;;;;13.10;11.90;;;;;;;14.27;100.00;96576.66;5030122;28;105514;-61
2022/09/01 02:42:42;;;;;;;13.27;12.07;;;;;;;14.17;100.00;96582.00;5029603;28;106077;-61
2022/09/01 02:45:15;;;;;;;13.17;11.87;;;;;;;14.19;100.00;96580.69;5030303;28;101820;-61
2022/09/01 02:47:45;;;;;;;12.47;11.17;;;;;;;14.07;100.00;96579.31;5030087;28;105459;-61
2022/09/01 02:50:15;;;;;;;12.20;11.00;;;;;;;14.05;100.00;96578.78;5029366;28;105709;-61
2022/09/01 02:52:44;;;;;;;11.07;10.07;;;;;;;13.97;100.00;96585.47;5029959;28;101835;-61
2022/09/01 02:55:12;;;;;;;11.73;10.73;;;;;;;13.96;100.00;96578.50;5029734;28;105772;-61
2022/09/01 02:57:39;;;;;;;10.80;9.80;;;;;;;13.90;100.00;96578.78;5029391;28;105230;-60
2022/09/01 03:00:19;;;;;;;10.00;9.07;;;;;;;13.89;100.00;96577.97;5034337;28;101929;-61
2022/09/01 03:02:51;;;;;;;10.87;9.83;;;;;;;13.80;100.00;96573.41;5031509;27;103062;-61
2022/09/01 03:05:24;;;;;;;10.50;9.50;;;;;;;13.73;100.00;96570.22;5030230;28;102041;-61
2022/09/01 03:07:55;;;;;;;9.67;8.77;;;;;;;13.67;100.00;96566.72;5032268;27;102182;-61
2022/09/01 03:10:31;;;;;;;9.17;8.37;;;;;;;13.71;100.00;96558.97;5030047;28;105420;-61
2022/09/01 03:13:00;;;;;;;9.00;8.20;;;;;;;13.66;100.00;96558.97;5030495;28;101994;-61
2022/09/01 03:15:29;;;;;;;9.67;8.77;;;;;;;13.64;100.00;96558.44;5030775;28;104739;-61
2022/09/01 03:18:00;;;;;;;9.20;8.30;;;;;;;13.60;100.00;96547.47;5029967;28;105293;-61
2022/09/01 03:20:28;;;;;;;9.10;8.30;;;;;;;13.51;100.00;96545.59;5035462;27;102145;-61
2022/09/01 03:22:56;;;;;;;8.63;7.77;;;;;;;13.47;100.00;96549.84;5031018;27;103031;-61
2022/09/01 03:25:27;;;;;;;7.60;6.90;;;;;;;13.50;100.00;96550.13;5031825;27;101844;-61
2022/09/01 03:27:54;;;;;;;7.93;7.23;;;;;;;13.47;100.00;96549.84;5030252;28;105536;-61
2022/09/01 03:30:22;;;;;;;8.20;7.50;;;;;;;13.35;100.00;96552.75;5029908;28;105398;-61
2022/09/01 03:32:49;;;;;;;7.77;7.17;;;;;;;13.34;100.00;96550.34;5030433;28;102125;-61
2022/09/01 03:35:18;;;;;;;7.47;6.70;;;;;;;13.28;100.00;96549.53;5030280;28;105465;-61
2022/09/01 03:37:45;;;;;;;8.10;7.30;;;;;;;13.31;100.00;96537.53;5030763;27;103079;-61
2022/09/01 03:40:14;;;;;;;8.60;7.80;;;;;;;13.32;100.00;96541.81;5030193;28;101927;-61
2022/09/01 03:42:42;;;;;;;7.93;7.23;;;;;;;13.21;100.00;96540.16;5033016;28;104719;-61
2022/09/01 03:45:12;;;;;;;7.67;7.00;;;;;;;13.24;100.00;96540.44;5030164;28;101976;-61
2022/09/01 03:47:42;;;;;;;7.93;7.17;;;;;;;13.18;100.00;96532.66;5029977;28;104949;-61
2022/09/01 03:50:19;;;;;;;7.80;7.07;;;;;;;13.14;100.00;96528.94;5029514;28;105463;-61
2022/09/01 03:52:48;;;;;;;8.37;7.17;;;;;;;13.18;100.00;96532.66;5031487;28;101721;-61
2022/09/01 03:55:17;;;;;;;7.83;7.13;;;;;;;13.17;100.00;96528.41;5029846;28;105235;-61
2022/09/01 03:57:46;;;;;;;7.47;6.77;;;;;;;13.16;100.00;96540.16;5029564;28;105760;-61
2022/09/01 04:00:28;;;;;;;8.93;8.13;;;;;;;13.20;100.00;96543.91;5029738;28;102027;-61
2022/09/01 04:02:58;;;;;;;8.67;7.93;;;;;;;13.19;100.00;96539.63;5030093;28;103499;-61
2022/09/01 04:05:28;;;;;;;8.50;7.80;;;;;;;13.14;100.00;96534.28;5032325;28;105283;-61
2022/09/01 04:08:02;;;;;;;8.70;7.90;;;;;;;13.09;100.00;96542.28;5029728;28;105033;-61
2022/09/01 04:10:31;;;;;;;8.37;7.57;;;;;;;13.04;100.00;96531.56;5029075;28;105070;-61
2022/09/01 04:12:59;;;;;;;7.90;7.20;;;;;;;12.97;100.00;96533.69;5029478;28;101908;-61
2022/09/01 04:15:27;;;;;;;9.27;8.47;;;;;;;12.97;100.00;96536.34;5029378;28;104789;-61
2022/09/01 04:18:09;;;;;;;9.27;8.37;;;;;;;12.96;100.00;96543.56;5029074;28;106002;-61
2022/09/01 04:20:47;;;;;;;9.33;8.43;;;;;;;12.96;100.00;96550.75;5029784;28;101772;-61
2022/09/01 04:23:19;;;;;;;9.43;7.87;;;;;;;13.03;100.00;96543.31;5029416;28;105080;-61
2022/09/01 04:25:49;;;;;;;10.03;9.13;;;;;;;13.14;100.00;96539.63;5028644;28;105475;-61
2022/09/01 04:28:21;;;;;;;9.33;8.53;;;;;;;13.12;100.00;96537.19;5032981;28;101882;-61
2022/09/01 04:30:54;;;;;;;9.60;8.70;;;;;;;13.15;100.00;96539.38;5028584;28;105385;-61
2022/09/01 04:33:25;;;;;;;9.47;8.67;;;;;;;13.14;100.00;96536.94;5029240;28;101886;-61
2022/09/01 04:35:55;;;;;;;10.00;9.10;;;;;;;13.15;100.00;96541.22;5028847;28;104772;-61
2022/09/01 04:38:28;;;;;;;9.67;8.73;;;;;;;13.22;100.00;96539.09;5027614;28;105274;-61
2022/09/01 04:40:56;;;;;;;10.93;9.97;;;;;;;13.26;100.00;96537.50;5029402;28;101916;-61
2022/09/01 04:43:24;;;;;;;10.67;9.67;;;;;;;13.29;100.00;96536.97;5028265;28;105520;-61
2022/09/01 04:45:52;;;;;;;9.43;8.53;;;;;;;13.30;100.00;96539.38;5028457;28;103618;-61
2022/09/01 04:48:21;;;;;;;10.10;9.20;;;;;;;13.29;100.00;96536.97;5029197;28;101793;-61
2022/09/01 04:50:50;;;;;;;9.83;9.03;;;;;;;13.31;100.00;96534.84;5031361;28;104813;-61
2022/09/01 04:53:28;;;;;;;9.60;8.70;;;;;;;13.29;100.00;96537.78;5029215;28;102323;-61
2022/09/01 04:55:55;;;;;;;10.07;9.27;;;;;;;13.31;100.00;96532.97;5028886;28;104785;-61
2022/09/01 04:58:25;;;;;;;10.23;9.23;;;;;;;13.26;100.00;96537.50;5028557;28;105120;-61
2022/09/01 05:00:54;;;;;;;10.70;9.80;;;;;;;13.31;100.00;96540.19;5028949;28;102045;-61
2022/09/01 05:03:22;;;;;;;10.03;9.03;;;;;;;13.24;100.00;96539.66;5028992;28;104715;-60
2022/09/01 05:06:17;;;;;;;10.63;9.73;;;;;;;13.23;100.00;96533.50;5027918;27;103474;-61
2022/09/01 05:08:51;;;;;;;10.60;9.63;;;;;;;13.23;100.00;96533.50;5028946;28;102112;-61
2022/09/01 05:11:39;;;;;;;10.50;9.50;;;;;;;13.20;100.00;96541.25;5028636;28;104789;-61
2022/09/01 05:14:17;;;;;;;11.47;10.23;;;;;;;13.25;100.00;96535.91;5031658;28;105716;-61
2022/09/01 05:16:45;;;;;;;10.67;9.57;;;;;;;13.29;100.00;96540.47;5027552;28;104829;-61
2022/09/01 05:19:13;;;;;;;11.03;10.03;;;;;;;13.38;100.00;96538.06;5028383;28;105369;-61
2022/09/01 05:21:44;;;;;;;11.70;10.60;;;;;;;13.38;100.00;96540.75;5027650;28;102615;-61
2022/09/01 05:24:16;;;;;;;11.60;10.07;;;;;;;13.41;100.00;96541.00;5027479;28;104790;-61
2022/09/01 05:26:45;;;;;;;11.47;10.47;;;;;;;13.42;100.00;96542.59;5026805;28;105224;-61
2022/09/01 05:29:16;;;;;;;11.23;10.23;;;;;;;13.51;100.00;96542.94;5061745;27;102128;-61
2022/09/01 05:31:48;;;;;;;12.07;10.77;;;;;;;13.53;100.00;96544.22;5027260;28;103740;-61
2022/09/01 05:34:25;;;;;;;12.40;11.17;;;;;;;13.55;100.00;96546.66;5030073;28;105661;-61
2022/09/01 05:36:56;;;;;;;12.03;10.83;;;;;;;13.57;100.00;96541.88;5028420;27;102733;-61
2022/09/01 05:39:26;;;;;;;12.20;11.17;;;;;;;13.59;100.00;96537.84;5024247;28;105140;-61
2022/09/01 05:41:53;;;;;;;12.30;11.10;;;;;;;13.65;100.00;96536.78;5027110;28;101892;-61
2022/09/01 05:44:21;;;;;;;13.10;11.80;;;;;;;13.70;100.00;96541.34;5029761;27;105462;-61
2022/09/01 05:46:51;;;;;;;11.83;10.83;;;;;;;13.82;100.00;96541.88;5029814;28;105075;-61
2022/09/01 05:49:20;;;;;;;12.07;10.97;;;;;;;13.87;100.00;96542.69;5029542;28;102192;-61
2022/09/01 05:51:52;;;;;;;11.57;10.57;;;;;;;14.01;100.00;96532.25;5030048;28;105153;-61
2022/09/01 05:54:24;;;;;;;12.20;11.10;;;;;;;13.94;100.00;96534.38;5030138;28;105445;-61
2022/09/01 05:56:54;;;;;;;11.10;9.97;;;;;;;14.03;100.00;96535.47;5034209;28;102037;-61
2022/09/01 05:59:26;;;;;;;11.93;10.83;;;;;;;13.96;100.00;96532.25;5030493;28;105693;-61
2022/09/01 06:02:01;;;;;;;11.27;10.27;;;;;;;13.84;100.00;96534.41;5030537;28;101887;-61
2022/09/01 06:04:29;;;;;;;11.67;10.57;;;;;;;13.79;100.00;96532.50;5030187;28;104714;-61
2022/09/01 06:07:07;;;;;;;12.13;10.90;;;;;;;13.85;100.00;96530.66;5030174;28;106069;-61
2022/09/01 06:09:36;;;;;;;13.23;11.80;;;;;;;13.86;100.00;96542.94;5030564;28;101860;-61
2022/09/01 06:12:07;;;;;;;13.47;11.97;;;;;;;13.87;100.00;96541.88;5030811;28;105509;-61
2022/09/01 06:14:34;;;;;;;12.13;11.03;;;;;;;14.06;100.00;96545.63;5030111;28;105688;-61
2022/09/01 06:17:02;;;;;;;14.80;11.50;;;;;;;14.04;100.00;96545.91;5029669;28;102174;-61
2022/09/01 06:19:32;;;;;;;12.60;11.50;;;;;;;14.14;100.00;96545.09;5033512;28;105586;-61
2022/09/01 06:22:00;;;;;;;13.67;12.30;;;;;;;14.10;100.00;96549.34;5030449;28;102009;-61
2022/09/01 06:24:27;;;;;;;14.27;12.97;;;;;;;14.15;100.00;96546.69;5030122;28;104995;-61
2022/09/01 06:26:55;;;;;;;13.43;12.10;;;;;;;14.30;100.00;96555.53;5029698;28;104987;-61
2022/09/01 06:29:24;;;;;;;13.00;11.90;;;;;;;14.42;100.00;96553.38;5030034;28;101935;-61
2022/09/01 06:31:51;;;;;;;12.30;11.20;;;;;;;14.59;100.00;96553.06;5030232;28;104878;-61
2022/09/01 06:34:20;;;;;;;12.53;11.43;;;;;;;14.64;100.00;96550.38;5029859;28;105095;-61
2022/09/01 06:36:50;;;;;;;13.60;12.23;;;;;;;14.53;100.00;96546.13;5031551;27;101841;-61
2022/09/01 06:39:21;;;;;;;14.17;12.87;;;;;;;14.39;100.00;96556.59;5030233;28;105238;-61
2022/09/01 06:41:53;;;;;;;14.37;13.07;;;;;;;14.24;100.00;96558.47;5033163;28;104196;-61
2022/09/01 06:44:30;;;;;;;14.97;13.57;;;;;;;14.13;100.00;96559.53;5029896;28;105367;-61
2022/09/01 06:47:07;;;;;;;15.83;14.30;;;;;;;13.99;100.00;96553.91;5029207;28;105145;-61
2022/09/01 06:49:35;;;;;;;17.00;15.30;;;;;;;14.13;100.00;96560.34;5029634;28;101963;-61
2022/09/01 06:52:10;;;;;;;16.03;14.30;;;;;;;14.30;100.00;96562.75;5029836;28;103838;-61
2022/09/01 06:54:40;;;;;;;16.30;14.70;;;;;;;14.33;100.00;96564.91;5028690;27;105457;-61
2022/09/01 06:57:07;;;;;;;15.57;14.17;;;;;;;14.41;100.00;96557.13;5029913;28;101998;-61
2022/09/01 06:59:36;;;;;;;15.73;14.33;;;;;;;14.30;100.00;96568.09;5029592;28;105563;-61
2022/09/01 07:02:05;;;;;;;16.57;14.90;;;;;;;14.16;100.00;96558.97;5029018;28;105440;-61
2022/09/01 07:04:52;;;;;;;16.30;14.67;;;;;;;14.39;100.00;96566.50;5032121;28;102179;-61
2022/09/01 07:07:21;;;;;;;16.57;14.97;;;;;;;14.28;100.00;96576.41;5029291;28;105168;-61
2022/09/01 07:10:06;;;;;;;16.87;15.10;;;;;;;14.38;100.00;96572.94;5028353;28;101682;-61
2022/09/01 07:12:45;;;;;;;16.50;14.90;;;;;;;14.40;100.00;96571.56;5029505;28;104647;-61
2022/09/01 07:15:16;;;;;;;17.33;15.73;;;;;;;14.50;100.00;96576.91;5029080;28;104820;-61
2022/09/01 07:17:48;;;;;;;18.27;15.57;;;;;;;14.56;100.00;96575.03;5029395;28;101832;-61
2022/09/01 07:20:18;;;;;;;16.83;15.13;;;;;;;14.66;100.00;96573.13;5029613;28;104831;-61
2022/09/01 07:22:45;;;;;;;17.00;15.40;;;;;;;14.62;100.00;96579.31;5028985;28;105323;-61
2022/09/01 07:25:12;;;;;;;16.53;14.93;;;;;;;14.77;100.00;96580.06;5029334;28;101902;-61
2022/09/01 07:27:58;;;;;;;16.27;14.73;;;;;;;14.61;100.00;96567.00;5031985;28;105684;-61
2022/09/01 07:30:30;;;;;;;16.83;14.93;;;;;;;14.73;100.00;96581.69;5029446;28;101997;-61
2022/09/01 07:32:57;;;;;;;18.00;16.30;;;;;;;14.93;100.00;96583.53;5029381;28;105419;-61
2022/09/01 07:35:26;;;;;;;16.43;14.73;;;;;;;15.05;100.00;96584.00;5028830;28;105180;-61
2022/09/01 07:37:54;;;;;;;16.83;15.23;;;;;;;15.32;100.00;96584.44;5029252;28;101893;-61
2022/09/01 07:40:27;;;;;;;20.27;14.80;;;;;;;15.58;100.00;96586.72;5028714;28;104978;-61
2022/09/01 07:42:59;;;;;;;15.93;14.40;;;;;;;15.70;100.00;96578.38;5026927;27;102468;-61
2022/09/01 07:45:47;;;;;;;15.77;14.27;;;;;;;16.04;100.00;96571.97;5027460;27;101777;-61
2022/09/01 07:48:19;;;;;;;15.27;13.67;;;;;;;16.61;100.00;96587.31;5031656;28;104913;-61
2022/09/01 07:50:51;;;;;;;13.97;12.67;;;;;;;16.55;100.00;96572.34;5028881;28;102184;-61
2022/09/01 07:53:22;;;;;;;13.60;12.30;;;;;;;16.89;100.00;96576.56;5028326;28;104472;-63
2022/09/01 07:55:55;;;;;;;13.63;12.33;;;;;;;16.97;100.00;96569.75;5026013;28;105825;-63
2022/09/01 07:58:25;;;;;;;11.20;10.30;;;;;;;17.17;100.00;96570.31;5028947;28;101911;-62
2022/09/01 08:01:01;;;;;;;10.50;9.60;;;;;;;17.31;100.00;96565.84;5029210;28;105097;-62
2022/09/01 08:03:29;;;;;;;10.07;9.20;;;;;;;17.43;100.00;96568.97;5028945;28;105690;-62
2022/09/01 08:06:19;;;;;;;9.83;8.93;;;;;;;17.62;100.00;96572.47;5029196;27;102071;-62
2022/09/01 08:08:49;;;;;;;8.93;8.23;;;;;;;18.32;100.00;96576.03;5033828;27;105259;-61
2022/09/01 08:11:19;;;;;;;8.77;7.97;;;;;;;18.69;100.00;96576.69;5053855;27;102527;-62
2022/09/01 08:13:47;;;;;;;9.13;8.33;;;;;;;18.74;100.00;96573.13;5049970;27;105790;-62
2022/09/01 08:16:32;;;;;;;7.73;7.13;;;;;;;18.67;100.00;96568.13;5049530;27;105329;-62
2022/09/01 08:19:05;;;;;;;8.30;7.50;;;;;;;18.55;100.00;96565.13;5042891;27;101961;-62
2022/09/01 08:21:54;;;;;;;7.93;7.27;;;;;;;18.54;100.00;96570.78;5026423;28;103693;-62
2022/09/01 08:24:34;;;;;;;8.67;7.97;;;;;;;18.84;100.00;96578.31;5025903;28;105213;-62
2022/09/01 08:27:05;;;;;;;7.40;6.80;;;;;;;19.03;100.00;96576.34;5009575;28;101914;-62
2022/09/01 08:29:32;;;;;;;7.73;7.13;;;;;;;19.37;100.00;96574.06;5017276;27;105146;-64
2022/09/01 08:32:01;;;;;;;6.80;6.20;;;;;;;19.61;100.00;96578.16;5049533;27;105251;-63
2022/09/01 08:34:31;;;;;;;6.90;6.30;;;;;;;19.69;100.00;96572.03;5053228;27;101901;-63
2022/09/01 08:37:21;;;;;;;6.93;6.33;;;;;;;19.56;100.00;96575.56;5049263;27;105768;-62
2022/09/01 08:39:48;;;;;;;6.57;6.07;;;;;;;19.25;100.00;96579.19;5049981;27;101918;-63
2022/09/01 08:42:24;;;;;;;6.70;6.10;;;;;;;18.92;100.00;96583.03;5047611;27;106135;-62
2022/09/01 08:44:59;;;;;;;6.47;5.93;;;;;;;19.06;100.00;96581.13;5036174;27;105250;-62
2022/09/01 08:47:46;;;;;;;6.03;5.43;;;;;;;19.26;100.00;96586.16;5046076;27;101809;-63
2022/09/01 08:50:14;;;;;;;6.20;5.70;;;;;;;19.42;100.00;96582.88;5029330;28;105592;-61
2022/09/01 08:53:10;;;;;;;6.70;6.20;;;;;;;19.63;100.00;96588.63;5008679;28;106117;-62
2022/09/01 08:55:44;;;;;;;5.57;5.13;;;;;;;19.85;100.00;96586.00;5056262;27;102870;-62
2022/09/01 08:58:16;;;;;;;5.97;5.47;;;;;;;19.81;100.00;96590.41;5031913;28;105142;-62
2022/09/01 09:00:56;;;;;;;6.10;5.60;;;;;;;19.94;100.00;96576.88;5027518;27;101683;-62
2022/09/01 09:03:38;;;;;;;6.03;5.53;;;;;;;19.62;100.00;96582.44;5029248;28;105164;-62
2022/09/01 09:06:14;;;;;;;5.33;4.90;;;;;;;19.89;100.00;96584.28;5008968;27;106093;-62
2022/09/01 09:08:58;;;;;;;5.30;4.90;;;;;;;19.94;100.00;96578.78;5020006;28;101887;-62
2022/09/01 09:11:59;;;;;;;6.03;5.60;;;;;;;19.69;100.00;96582.03;5048165;27;105509;-62
2022/09/01 09:14:38;;;;;;;5.93;5.43;;;;;;;19.48;100.00;96586.25;5016730;27;101914;-62
2022/09/01 09:17:08;;;;;;;6.23;5.73;;;;;;;20.07;100.00;96575.25;5050625;27;101816;-63
2022/09/01 09:19:41;;;;;;;5.70;5.30;;;;;;;20.44;100.00;96566.81;5050704;27;102282;-62
2022/09/01 09:22:11;;;;;;;6.23;4.80;;;;;;;20.76;100.00;96577.34;5046649;27;105800;-62
2022/09/01 09:24:48;;;;;;;5.77;5.30;;;;;;;20.58;100.00;96570.22;5030008;28;102637;-62
2022/09/01 09:27:45;;;;;;;4.70;4.40;;;;;;;20.60;100.00;96568.03;5029417;27;103109;-63
2022/09/01 09:30:14;;;;;;;4.83;4.43;;;;;;;20.28;100.00;96565.56;5028892;28;101813;-62
2022/09/01 09:32:50;;;;;;;4.90;4.47;;;;;;;20.55;100.00;96565.44;5030179;27;102501;-62
2022/09/01 09:35:29;;;;;;;5.03;4.53;;;;;;;20.15;100.00;96567.22;5027990;28;105838;-62
2022/09/01 09:37:56;;;;;;;4.73;4.43;;;;;;;20.30;100.00;96566.06;5028592;28;101943;-70
2022/09/01 09:40:26;;;;;;;4.87;4.47;;;;;;;20.56;100.00;96569.72;5030022;28;102813;-62
2022/09/01 09:43:04;;;;;;;5.37;4.97;;;;;;;20.74;100.00;96563.31;5028916;27;103295;-62
2022/09/01 09:45:44;;;;;;;5.57;5.10;;;;;;;21.12;100.00;96569.88;5033632;28;101841;-62
2022/09/01 09:48:43;;;;;;;5.13;4.63;;;;;;;21.60;100.00;96565.25;5029419;28;102860;-62
2022/09/01 09:51:20;;;;;;;5.03;4.63;;;;;;;22.22;100.00;96566.59;5025459;28;101845;-62
2022/09/01 09:53:47;;;;;;;6.60;5.30;;;;;;;22.28;100.00;96557.22;5033018;27;105497;-63
2022/09/01 09:56:27;;;;;;;5.73;5.13;;;;;;;22.31;100.00;96562.78;5028046;27;105392;-62
2022/09/01 09:58:54;;;;;;;5.90;5.23;;;;;;;22.43;100.00;96557.50;5028363;28;103487;-63
2022/09/01 10:01:31;;;;;;;6.23;5.70;;;;;;;22.08;100.00;96555.16;5020840;28;105229;-63
2022/09/01 10:04:00;;;;;;;5.63;5.23;;;;;;;21.80;100.00;96560.06;5029310;28;102675;-60
2022/09/01 10:06:37;;;;;;;6.57;6.07;;;;;;;21.93;100.00;96563.75;5029690;27;102071;-61
2022/09/01 10:09:07;;;;;;;6.47;5.93;;;;;;;22.17;100.00;96558.66;5047581;27;105462;-62
2022/09/01 10:11:38;;;;;;;5.90;5.50;;;;;;;22.51;100.00;96561.38;5043153;27;102573;-61
2022/09/01 10:14:09;;;;;;;6.30;5.73;;;;;;;22.53;100.00;96550.97;5029933;28;102438;-62
2022/09/01 10:16:41;;;;;;;5.87;5.10;;;;;;;22.48;100.00;96556.56;5027847;28;105106;-62
2022/09/01 10:22:33;;;;;;;5.70;5.30;;;;;;;21.70;100.00;96554.94;5026918;28;105486;-62
2022/09/01 10:25:02;;;;;;;5.93;5.37;;;;;;;21.65;100.00;96557.81;5008949;28;103149;-69
2022/09/01 10:27:41;;;;;;;5.93;5.43;;;;;;;21.42;100.00;96553.59;5009031;28;101851;-62
2022/09/01 10:30:13;;;;;;;5.90;5.40;;;;;;;21.69;100.00;96552.56;5012286;28;105166;-62
2022/09/01 10:32:43;;;;;;;5.20;4.80;;;;;;;21.51;100.00;96548.19;5011468;28;101901;-62
2022/09/01 10:35:15;;;;;;;5.07;4.67;;;;;;;21.62;100.00;96554.91;5013057;28;102445;-62
2022/09/01 10:37:43;;;;;;;5.20;4.80;;;;;;;21.68;100.00;96545.56;5010613;28;105324;-62
2022/09/01 10:40:18;;;;;;;4.37;4.07;;;;;;;21.26;100.00;96543.53;5012469;28;101966;-62
2022/09/01 10:42:53;;;;;;;4.80;4.40;;;;;;;21.72;100.00;96549.22;5012850;28;102587;-62
2022/09/01 10:45:35;;;;;;;4.70;4.30;;;;;;;21.75;100.00;96551.31;5010554;28;106042;-62
2022/09/01 10:48:26;;;;;;;5.20;4.70;;;;;;;21.99;100.00;96546.22;5012641;28;101687;-62
2022/09/01 10:51:14;;;;;;;4.93;4.53;;;;;;;22.33;100.00;96551.59;5025886;27;105719;-62
2022/09/01 10:53:44;;;;;;;4.53;4.13;;;;;;;21.93;100.00;96553.72;5055390;27;102740;-62
2022/09/01 10:56:18;;;;;;;4.50;4.10;;;;;;;21.94;100.00;96554.50;5052726;27;102333;-62
2022/09/01 10:59:05;;;;;;;4.40;4.10;;;;;;;22.21;100.00;96554.19;5050669;27;103131;-62
2022/09/01 11:02:12;;;;;;;4.47;4.07;;;;;;;23.10;100.00;96553.03;5039887;27;101825;-62
2022/09/01 11:05:18;;;;;;;4.73;4.33;;;;;;;23.43;100.00;96553.25;5032515;27;102890;-62
2022/09/01 11:07:45;;;;;;;4.53;4.23;;;;;;;22.99;100.00;96545.59;5038159;27;105612;-62
2022/09/01 11:10:33;;;;;;;3.70;3.40;;;;;;;23.13;100.00;96546.16;5013416;27;101888;-62
2022/09/01 11:13:37;;;;;;;3.50;3.30;;;;;;;23.79;100.00;96556.22;5049618;27;102970;-62
2022/09/01 11:16:57;;;;;;;3.10;2.90;;;;;;;24.04;100.00;96557.97;5029170;27;105501;-62
2022/09/01 11:19:42;;;;;;;3.40;3.10;;;;;;;24.19;100.00;96543.81;5037050;27;101918;-62
2022/09/01 11:22:25;;;;;;;2.80;2.60;;;;;;;24.43;100.00;96541.16;5030037;27;105633;-62
2022/09/01 11:25:38;;;;;;;3.17;2.87;;;;;;;24.89;100.00;96538.13;5032383;28;102035;-62
2022/09/01 11:28:35;;;;;;;3.00;2.70;;;;;;;24.96;97.19;96538.41;5042419;27;105608;-62
2022/09/01 11:31:14;;;;;;;2.80;2.60;;;;;;;25.44;94.56;96535.75;5032581;27;103107;-62
2022/09/01 11:33:52;;;;;;;2.57;2.37;;;;;;;25.45;92.41;96534.59;5030633;28;101712;-62
2022/09/01 11:37:00;;;;;;;2.30;2.10;;;;;;;25.25;92.25;96530.88;5033206;27;102397;-62
2022/09/01 11:39:36;;;;;;;2.50;2.40;;;;;;;25.20;90.71;96531.06;5029941;27;105381;-62
2022/09/01 11:42:12;;;;;;;2.80;2.60;;;;;;;25.90;92.41;96540.66;5031225;27;101981;-62
2022/09/01 11:44:46;;;;;;;2.23;2.00;;;;;;;25.28;91.06;96532.91;5033026;28;105353;-62
2022/09/01 11:47:20;;;;;;;2.50;2.30;;;;;;;25.45;84.74;96534.59;5031499;27;102299;-62